DAL7609 KSUN-KLAS
Flight info
| Callsign | DAL7609 |
|---|---|
| Flight time | 1h 19m |
| Altitude | 35000 |
| Route | FLIYN1 GDWIN FASTE CRITO Q73 WINEN STEWW CHOWW4 |
| Aircraft | B738/M-SDE2E3FGHIRWXY/LB1 |
Departure
| Time | 2026-05-08 04:20 |
|---|---|
| Airport | Friedman Memorial Airport (KSUN) |
Arrival
| Time | 2026-05-08 05:39 |
|---|---|
| Airport | Harry Reid International Airport (KLAS) |
| Time | Latitude | Longitude | Altitude | Speed | Heading |
|---|---|---|---|---|---|
| 2026-05-08 03:22 | 43.50035 | -114.29654 | 5292 ft | 0 kts | 269° |
| 2026-05-08 03:55 | 43.50035 | -114.29653 | 5295 ft | 1 kts | 269° |
| 2026-05-08 03:55 | 43.50036 | -114.29638 | 5294 ft | 3 kts | 303° |
| 2026-05-08 03:55 | 43.50030 | -114.29625 | 5294 ft | 3 kts | 340° |
| 2026-05-08 03:56 | 43.50046 | -114.29617 | 5294 ft | 3 kts | 24° |
| 2026-05-08 03:56 | 43.50053 | -114.29613 | 5295 ft | 3 kts | 19° |
| 2026-05-08 03:56 | 43.50036 | -114.29617 | 5292 ft | 3 kts | 335° |
| 2026-05-08 03:56 | 43.50029 | -114.29606 | 5294 ft | 3 kts | 288° |
| 2026-05-08 03:57 | 43.50022 | -114.29591 | 5291 ft | 3 kts | 332° |
| 2026-05-08 03:57 | 43.50022 | -114.29592 | 5291 ft | 0 kts | 314° |
| 2026-05-08 04:07 | 43.50023 | -114.29594 | 5294 ft | 2 kts | 315° |
| 2026-05-08 04:07 | 43.50052 | -114.29588 | 5293 ft | 6 kts | 57° |
| 2026-05-08 04:08 | 43.50060 | -114.29515 | 5294 ft | 9 kts | 75° |
| 2026-05-08 04:08 | 43.50103 | -114.29463 | 5293 ft | 8 kts | 11° |
| 2026-05-08 04:08 | 43.50150 | -114.29485 | 5295 ft | 7 kts | 329° |
| 2026-05-08 04:08 | 43.50189 | -114.29522 | 5296 ft | 7 kts | 325° |
| 2026-05-08 04:09 | 43.50228 | -114.29559 | 5298 ft | 7 kts | 325° |
| 2026-05-08 04:09 | 43.50265 | -114.29595 | 5299 ft | 7 kts | 325° |
| 2026-05-08 04:09 | 43.50302 | -114.29631 | 5300 ft | 6 kts | 325° |
| 2026-05-08 04:09 | 43.50339 | -114.29666 | 5301 ft | 6 kts | 325° |
| 2026-05-08 04:10 | 43.50374 | -114.29700 | 5302 ft | 6 kts | 325° |
| 2026-05-08 04:10 | 43.50409 | -114.29733 | 5301 ft | 6 kts | 325° |
| 2026-05-08 04:10 | 43.50443 | -114.29766 | 5301 ft | 6 kts | 325° |
| 2026-05-08 04:10 | 43.50477 | -114.29799 | 5303 ft | 6 kts | 325° |
| 2026-05-08 04:11 | 43.50513 | -114.29823 | 5300 ft | 6 kts | 341° |
| 2026-05-08 04:11 | 43.50550 | -114.29845 | 5308 ft | 6 kts | 329° |
| 2026-05-08 04:11 | 43.50582 | -114.29874 | 5304 ft | 6 kts | 327° |
| 2026-05-08 04:11 | 43.50615 | -114.29904 | 5311 ft | 5 kts | 325° |
| 2026-05-08 04:12 | 43.50646 | -114.29934 | 5303 ft | 5 kts | 325° |
| 2026-05-08 04:12 | 43.50677 | -114.29963 | 5311 ft | 5 kts | 325° |
| 2026-05-08 04:12 | 43.50709 | -114.29993 | 5307 ft | 5 kts | 326° |
| 2026-05-08 04:12 | 43.50740 | -114.30023 | 5307 ft | 5 kts | 324° |
| 2026-05-08 04:13 | 43.50771 | -114.30053 | 5310 ft | 5 kts | 324° |
| 2026-05-08 04:13 | 43.50802 | -114.30084 | 5312 ft | 5 kts | 324° |
| 2026-05-08 04:13 | 43.50833 | -114.30114 | 5313 ft | 6 kts | 324° |
| 2026-05-08 04:13 | 43.50865 | -114.30146 | 5309 ft | 6 kts | 324° |
| 2026-05-08 04:14 | 43.50898 | -114.30178 | 5319 ft | 6 kts | 324° |
| 2026-05-08 04:14 | 43.50933 | -114.30211 | 5320 ft | 6 kts | 326° |
| 2026-05-08 04:14 | 43.50967 | -114.30244 | 5317 ft | 6 kts | 324° |
| 2026-05-08 04:14 | 43.51001 | -114.30278 | 5323 ft | 6 kts | 324° |
| 2026-05-08 04:15 | 43.51035 | -114.30311 | 5314 ft | 6 kts | 325° |
| 2026-05-08 04:15 | 43.51069 | -114.30344 | 5325 ft | 6 kts | 324° |
| 2026-05-08 04:15 | 43.51103 | -114.30377 | 5324 ft | 6 kts | 324° |
| 2026-05-08 04:15 | 43.51137 | -114.30410 | 5327 ft | 6 kts | 324° |
| 2026-05-08 04:16 | 43.51159 | -114.30424 | 5328 ft | 0 kts | 349° |
| 2026-05-08 04:18 | 43.51193 | -114.30411 | 5319 ft | 10 kts | 30° |
| 2026-05-08 04:18 | 43.51177 | -114.30330 | 5320 ft | 11 kts | 138° |
| 2026-05-08 04:18 | 43.51116 | -114.30270 | 5318 ft | 16 kts | 145° |
| 2026-05-08 04:19 | 43.50829 | -114.29995 | 5312 ft | 87 kts | 145° |
| 2026-05-08 04:19 | 43.50141 | -114.29330 | 5290 ft | 152 kts | 145° |
| 2026-05-08 04:19 | 43.49119 | -114.28354 | 5367 ft | 199 kts | 145° |
| 2026-05-08 04:19 | 43.47939 | -114.27219 | 5879 ft | 216 kts | 145° |
| 2026-05-08 04:20 | 43.46594 | -114.26042 | 6141 ft | 245 kts | 158° |
| 2026-05-08 04:20 | 43.44839 | -114.25645 | 6358 ft | 272 kts | 187° |
| 2026-05-08 04:20 | 43.43040 | -114.26705 | 6726 ft | 293 kts | 217° |
| 2026-05-08 04:20 | 43.41489 | -114.28564 | 7606 ft | 294 kts | 223° |
| 2026-05-08 04:21 | 43.40027 | -114.30449 | 8783 ft | 284 kts | 222° |
| 2026-05-08 04:21 | 43.38573 | -114.32300 | 9673 ft | 286 kts | 221° |
| 2026-05-08 04:21 | 43.37070 | -114.33675 | 10368 ft | 289 kts | 200° |
| 2026-05-08 04:22 | 43.35234 | -114.34044 | 10600 ft | 309 kts | 174° |
| 2026-05-08 04:22 | 43.33097 | -114.33226 | 10915 ft | 328 kts | 161° |
| 2026-05-08 04:22 | 43.30927 | -114.32117 | 11516 ft | 337 kts | 160° |
| 2026-05-08 04:22 | 43.28729 | -114.30975 | 12299 ft | 338 kts | 160° |
| 2026-05-08 04:23 | 43.26522 | -114.29835 | 13094 ft | 340 kts | 161° |
| 2026-05-08 04:23 | 43.24291 | -114.28696 | 13788 ft | 344 kts | 161° |
| 2026-05-08 04:23 | 43.22026 | -114.27552 | 14444 ft | 349 kts | 161° |
| 2026-05-08 04:23 | 43.19735 | -114.26404 | 15122 ft | 352 kts | 162° |
| 2026-05-08 04:24 | 43.17450 | -114.25264 | 15776 ft | 356 kts | 162° |
| 2026-05-08 04:24 | 43.15116 | -114.24103 | 16409 ft | 360 kts | 162° |
| 2026-05-08 04:24 | 43.12746 | -114.22924 | 17041 ft | 363 kts | 162° |
| 2026-05-08 04:24 | 43.10361 | -114.21739 | 17667 ft | 367 kts | 162° |
| 2026-05-08 04:25 | 43.07948 | -114.20542 | 18275 ft | 370 kts | 162° |
| 2026-05-08 04:25 | 43.05512 | -114.19337 | 18818 ft | 375 kts | 162° |
| 2026-05-08 04:25 | 43.03037 | -114.18117 | 19294 ft | 382 kts | 162° |
| 2026-05-08 04:25 | 43.00485 | -114.17075 | 19775 ft | 385 kts | 174° |
| 2026-05-08 04:26 | 42.97812 | -114.17162 | 20298 ft | 386 kts | 188° |
| 2026-05-08 04:26 | 42.95165 | -114.17577 | 20796 ft | 390 kts | 188° |
| 2026-05-08 04:26 | 42.92709 | -114.17975 | 21208 ft | 395 kts | 188° |
| 2026-05-08 04:27 | 42.90163 | -114.18387 | 21606 ft | 400 kts | 188° |
| 2026-05-08 04:27 | 42.87381 | -114.18828 | 22085 ft | 404 kts | 188° |
| 2026-05-08 04:27 | 42.84576 | -114.19262 | 22532 ft | 408 kts | 187° |
| 2026-05-08 04:27 | 42.81743 | -114.19692 | 22983 ft | 412 kts | 187° |
| 2026-05-08 04:28 | 42.78883 | -114.20121 | 23422 ft | 416 kts | 187° |
| 2026-05-08 04:28 | 42.75996 | -114.20549 | 23873 ft | 419 kts | 187° |
| 2026-05-08 04:28 | 42.73071 | -114.20982 | 23955 ft | 428 kts | 187° |
| 2026-05-08 04:28 | 42.70119 | -114.21416 | 23924 ft | 423 kts | 187° |
| 2026-05-08 04:29 | 42.67249 | -114.21837 | 23919 ft | 417 kts | 187° |
| 2026-05-08 04:29 | 42.64383 | -114.22258 | 23913 ft | 414 kts | 187° |
| 2026-05-08 04:29 | 42.61516 | -114.22680 | 23929 ft | 414 kts | 187° |
| 2026-05-08 04:29 | 42.58653 | -114.23101 | 23927 ft | 414 kts | 187° |
| 2026-05-08 04:30 | 42.55785 | -114.23522 | 23924 ft | 414 kts | 187° |
| 2026-05-08 04:30 | 42.52929 | -114.23942 | 23922 ft | 413 kts | 187° |
| 2026-05-08 04:30 | 42.50073 | -114.24359 | 23919 ft | 412 kts | 187° |
| 2026-05-08 04:30 | 42.47228 | -114.24776 | 23921 ft | 411 kts | 188° |
| 2026-05-08 04:31 | 42.44388 | -114.25192 | 23916 ft | 410 kts | 188° |
| 2026-05-08 04:31 | 42.41600 | -114.25599 | 23917 ft | 408 kts | 188° |
| 2026-05-08 04:31 | 42.39071 | -114.25968 | 23919 ft | 407 kts | 188° |
| 2026-05-08 04:32 | 42.36550 | -114.26336 | 23920 ft | 406 kts | 188° |
| 2026-05-08 04:32 | 42.33749 | -114.26744 | 23919 ft | 404 kts | 188° |
| 2026-05-08 04:32 | 42.30957 | -114.27150 | 23914 ft | 403 kts | 188° |
| 2026-05-08 04:32 | 42.28168 | -114.27555 | 23912 ft | 402 kts | 188° |
| 2026-05-08 04:33 | 42.25388 | -114.27959 | 23921 ft | 401 kts | 188° |
| 2026-05-08 04:33 | 42.22617 | -114.28362 | 23916 ft | 401 kts | 188° |
| 2026-05-08 04:33 | 42.19846 | -114.28764 | 23921 ft | 400 kts | 188° |
| 2026-05-08 04:33 | 42.17077 | -114.29165 | 23929 ft | 402 kts | 188° |
| 2026-05-08 04:34 | 42.14275 | -114.29571 | 24197 ft | 407 kts | 188° |
| 2026-05-08 04:34 | 42.11489 | -114.29976 | 24656 ft | 410 kts | 188° |
| 2026-05-08 04:34 | 42.08640 | -114.30389 | 24995 ft | 415 kts | 188° |
| 2026-05-08 04:34 | 42.05751 | -114.30808 | 25314 ft | 420 kts | 188° |
| 2026-05-08 04:35 | 42.02829 | -114.31230 | 25647 ft | 425 kts | 187° |
| 2026-05-08 04:35 | 41.99871 | -114.31657 | 25951 ft | 430 kts | 187° |
| 2026-05-08 04:35 | 41.96883 | -114.32087 | 26274 ft | 434 kts | 187° |
| 2026-05-08 04:35 | 41.93863 | -114.32522 | 26581 ft | 439 kts | 187° |
| 2026-05-08 04:36 | 41.90814 | -114.32959 | 26863 ft | 444 kts | 187° |
| 2026-05-08 04:36 | 41.87726 | -114.33402 | 27134 ft | 449 kts | 187° |
| 2026-05-08 04:36 | 41.85023 | -114.33790 | 27373 ft | 453 kts | 187° |
| 2026-05-08 04:37 | 41.82042 | -114.34219 | 27661 ft | 455 kts | 187° |
| 2026-05-08 04:37 | 41.78871 | -114.34676 | 27905 ft | 461 kts | 187° |
| 2026-05-08 04:37 | 41.75670 | -114.35126 | 28168 ft | 465 kts | 187° |
| 2026-05-08 04:37 | 41.72440 | -114.35578 | 28400 ft | 470 kts | 187° |
| 2026-05-08 04:38 | 41.69175 | -114.36046 | 28703 ft | 473 kts | 187° |
| 2026-05-08 04:38 | 41.65898 | -114.36523 | 28923 ft | 476 kts | 187° |
| 2026-05-08 04:38 | 41.62590 | -114.36997 | 29084 ft | 480 kts | 187° |
| 2026-05-08 04:38 | 41.59251 | -114.37475 | 29277 ft | 485 kts | 186° |
| 2026-05-08 04:39 | 41.55885 | -114.37951 | 29551 ft | 488 kts | 186° |
| 2026-05-08 04:39 | 41.52549 | -114.38420 | 29814 ft | 490 kts | 186° |
| 2026-05-08 04:39 | 41.49149 | -114.38899 | 30049 ft | 494 kts | 186° |
| 2026-05-08 04:39 | 41.45722 | -114.39384 | 30273 ft | 497 kts | 187° |
| 2026-05-08 04:40 | 41.42284 | -114.39868 | 30573 ft | 498 kts | 186° |
| 2026-05-08 04:40 | 41.38836 | -114.40350 | 30935 ft | 497 kts | 186° |
| 2026-05-08 04:40 | 41.35403 | -114.40836 | 31267 ft | 496 kts | 187° |
| 2026-05-08 04:40 | 41.31968 | -114.41333 | 31545 ft | 497 kts | 187° |
| 2026-05-08 04:41 | 41.28518 | -114.41822 | 31793 ft | 500 kts | 186° |
| 2026-05-08 04:41 | 41.25104 | -114.42283 | 32138 ft | 499 kts | 187° |
| 2026-05-08 04:41 | 41.22116 | -114.42702 | 32467 ft | 498 kts | 187° |
| 2026-05-08 04:41 | 41.22097 | -114.42704 | 32473 ft | 498 kts | 187° |
| 2026-05-08 04:42 | 41.18651 | -114.43196 | 32732 ft | 499 kts | 187° |
| 2026-05-08 04:42 | 41.15191 | -114.43691 | 32913 ft | 501 kts | 187° |
| 2026-05-08 04:42 | 41.11721 | -114.44183 | 33182 ft | 502 kts | 187° |
| 2026-05-08 04:42 | 41.08259 | -114.44669 | 33544 ft | 500 kts | 187° |
| 2026-05-08 04:43 | 41.04800 | -114.45153 | 33808 ft | 500 kts | 187° |
| 2026-05-08 04:43 | 41.01337 | -114.45638 | 34048 ft | 501 kts | 187° |
| 2026-05-08 04:43 | 40.97917 | -114.46117 | 34320 ft | 500 kts | 187° |
| 2026-05-08 04:43 | 40.94464 | -114.46598 | 34616 ft | 499 kts | 187° |
| 2026-05-08 04:44 | 40.91019 | -114.47077 | 34930 ft | 497 kts | 187° |
| 2026-05-08 04:44 | 40.87574 | -114.47556 | 35048 ft | 500 kts | 187° |
| 2026-05-08 04:44 | 40.80632 | -114.48523 | 35047 ft | 502 kts | 187° |
| 2026-05-08 04:45 | 40.73706 | -114.49487 | 35031 ft | 496 kts | 187° |
| 2026-05-08 04:45 | 40.66901 | -114.50245 | 35049 ft | 494 kts | 182° |
| 2026-05-08 04:46 | 40.60039 | -114.50485 | 35053 ft | 493 kts | 181° |
| 2026-05-08 04:46 | 40.57061 | -114.50552 | 35051 ft | 492 kts | 181° |
| 2026-05-08 04:47 | 40.50207 | -114.50732 | 35047 ft | 492 kts | 181° |
| 2026-05-08 04:47 | 40.43357 | -114.50960 | 35051 ft | 493 kts | 181° |
| 2026-05-08 04:48 | 40.39939 | -114.50755 | 35036 ft | 492 kts | 170° |
| 2026-05-08 04:48 | 40.36656 | -114.49842 | 35050 ft | 489 kts | 160° |
| 2026-05-08 04:48 | 40.30191 | -114.47029 | 35048 ft | 490 kts | 159° |
| 2026-05-08 04:49 | 40.23728 | -114.44187 | 35045 ft | 491 kts | 159° |
| 2026-05-08 04:49 | 40.17237 | -114.41403 | 35052 ft | 491 kts | 160° |
| 2026-05-08 04:50 | 40.10732 | -114.38653 | 35057 ft | 492 kts | 160° |
| 2026-05-08 04:50 | 40.04259 | -114.35932 | 35054 ft | 492 kts | 160° |
| 2026-05-08 04:51 | 39.97741 | -114.33200 | 35059 ft | 492 kts | 160° |
| 2026-05-08 04:51 | 39.94947 | -114.32029 | 35058 ft | 493 kts | 160° |
| 2026-05-08 04:52 | 39.91723 | -114.30681 | 35031 ft | 481 kts | 160° |
| 2026-05-08 04:52 | 39.88540 | -114.29351 | 35051 ft | 479 kts | 160° |
| 2026-05-08 04:52 | 39.82321 | -114.26754 | 35059 ft | 475 kts | 160° |
| 2026-05-08 04:53 | 39.75966 | -114.24097 | 35069 ft | 485 kts | 160° |
| 2026-05-08 04:53 | 39.69481 | -114.21388 | 35060 ft | 493 kts | 160° |
| 2026-05-08 04:54 | 39.62930 | -114.18668 | 35061 ft | 495 kts | 160° |
| 2026-05-08 04:54 | 39.56359 | -114.15945 | 35053 ft | 496 kts | 160° |
| 2026-05-08 04:55 | 39.49834 | -114.13248 | 35052 ft | 493 kts | 160° |
| 2026-05-08 04:55 | 39.43371 | -114.10582 | 35058 ft | 486 kts | 160° |
| 2026-05-08 04:56 | 39.36926 | -114.07923 | 35071 ft | 487 kts | 160° |
| 2026-05-08 04:56 | 39.34234 | -114.06814 | 35066 ft | 487 kts | 160° |
| 2026-05-08 04:57 | 39.27771 | -114.04157 | 35073 ft | 488 kts | 160° |
| 2026-05-08 04:57 | 39.21340 | -114.01517 | 35066 ft | 488 kts | 160° |
| 2026-05-08 04:58 | 39.14862 | -113.98864 | 35068 ft | 488 kts | 160° |
| 2026-05-08 04:58 | 39.08425 | -113.96235 | 35063 ft | 480 kts | 161° |
| 2026-05-08 04:59 | 39.02115 | -113.93658 | 35059 ft | 474 kts | 161° |
| 2026-05-08 04:59 | 38.95836 | -113.91103 | 35072 ft | 473 kts | 161° |
| 2026-05-08 05:00 | 38.89607 | -113.88572 | 35060 ft | 473 kts | 161° |
| 2026-05-08 05:00 | 38.83337 | -113.86029 | 35061 ft | 472 kts | 161° |
| 2026-05-08 05:01 | 38.77077 | -113.83491 | 35051 ft | 472 kts | 161° |
| 2026-05-08 05:01 | 38.74428 | -113.82419 | 35056 ft | 471 kts | 161° |
| 2026-05-08 05:02 | 38.68219 | -113.79913 | 35057 ft | 471 kts | 161° |
| 2026-05-08 05:02 | 38.61965 | -113.77387 | 35060 ft | 471 kts | 161° |
| 2026-05-08 05:03 | 38.55799 | -113.74905 | 35055 ft | 463 kts | 161° |
| 2026-05-08 05:03 | 38.49592 | -113.72413 | 35072 ft | 473 kts | 161° |
| 2026-05-08 05:04 | 38.43280 | -113.69882 | 35056 ft | 476 kts | 161° |
| 2026-05-08 05:04 | 38.37000 | -113.67370 | 35058 ft | 476 kts | 161° |
| 2026-05-08 05:05 | 38.30677 | -113.64844 | 35060 ft | 476 kts | 161° |
| 2026-05-08 05:05 | 38.24369 | -113.62327 | 35070 ft | 475 kts | 161° |
| 2026-05-08 05:06 | 38.18074 | -113.59821 | 35071 ft | 473 kts | 161° |
| 2026-05-08 05:06 | 38.15434 | -113.58771 | 35075 ft | 473 kts | 161° |
| 2026-05-08 05:07 | 38.09204 | -113.56298 | 35068 ft | 471 kts | 161° |
| 2026-05-08 05:07 | 38.02946 | -113.53814 | 35075 ft | 471 kts | 161° |
| 2026-05-08 05:08 | 37.96694 | -113.51343 | 35079 ft | 470 kts | 162° |
| 2026-05-08 05:08 | 37.90258 | -113.50006 | 35074 ft | 471 kts | 181° |
| 2026-05-08 05:09 | 37.83830 | -113.50358 | 34564 ft | 461 kts | 183° |
| 2026-05-08 05:09 | 37.80629 | -113.50580 | 33953 ft | 462 kts | 183° |
| 2026-05-08 05:09 | 37.77403 | -113.50791 | 33254 ft | 465 kts | 182° |
| 2026-05-08 05:10 | 37.74173 | -113.50989 | 32697 ft | 464 kts | 182° |
| 2026-05-08 05:10 | 37.67832 | -113.51334 | 32099 ft | 440 kts | 182° |
| 2026-05-08 05:10 | 37.64837 | -113.51488 | 32068 ft | 421 kts | 182° |
| 2026-05-08 05:11 | 37.61942 | -113.51634 | 32071 ft | 415 kts | 182° |
| 2026-05-08 05:11 | 37.56809 | -113.51895 | 32095 ft | 418 kts | 182° |
| 2026-05-08 05:12 | 37.53730 | -113.52053 | 32090 ft | 420 kts | 182° |
| 2026-05-08 05:12 | 37.47948 | -113.52353 | 32068 ft | 412 kts | 182° |
| 2026-05-08 05:13 | 37.42209 | -113.52651 | 32081 ft | 415 kts | 182° |
| 2026-05-08 05:13 | 37.36421 | -113.52950 | 32083 ft | 418 kts | 182° |
| 2026-05-08 05:14 | 37.31626 | -113.53197 | 32055 ft | 407 kts | 182° |
| 2026-05-08 05:14 | 37.28833 | -113.53340 | 31832 ft | 400 kts | 182° |
| 2026-05-08 05:14 | 37.26043 | -113.53485 | 31216 ft | 403 kts | 183° |
| 2026-05-08 05:14 | 37.23247 | -113.54130 | 30000 ft | 421 kts | 202° |
| 2026-05-08 05:15 | 37.19689 | -113.56275 | 28943 ft | 431 kts | 204° |
| 2026-05-08 05:15 | 37.17874 | -113.57386 | 28719 ft | 425 kts | 204° |
| 2026-05-08 05:15 | 37.15250 | -113.58973 | 28487 ft | 411 kts | 203° |
| 2026-05-08 05:15 | 37.12737 | -113.60475 | 28140 ft | 401 kts | 203° |
| 2026-05-08 05:16 | 37.10243 | -113.61941 | 27784 ft | 391 kts | 203° |
| 2026-05-08 05:16 | 37.07807 | -113.63362 | 27339 ft | 383 kts | 203° |
| 2026-05-08 05:16 | 37.05402 | -113.64763 | 26765 ft | 379 kts | 203° |
| 2026-05-08 05:16 | 37.05154 | -113.64908 | 26704 ft | 379 kts | 203° |
| 2026-05-08 05:17 | 37.03411 | -113.65926 | 26278 ft | 376 kts | 202° |
| 2026-05-08 05:17 | 37.01057 | -113.67299 | 25754 ft | 371 kts | 202° |
| 2026-05-08 05:17 | 36.98736 | -113.68651 | 25284 ft | 365 kts | 202° |
| 2026-05-08 05:17 | 36.96459 | -113.69976 | 24889 ft | 357 kts | 202° |
| 2026-05-08 05:18 | 36.94242 | -113.71269 | 24581 ft | 347 kts | 201° |
| 2026-05-08 05:18 | 36.92090 | -113.72525 | 24352 ft | 349 kts | 201° |
| 2026-05-08 05:18 | 36.89874 | -113.73815 | 24117 ft | 354 kts | 201° |
| 2026-05-08 05:18 | 36.87647 | -113.75114 | 23856 ft | 352 kts | 201° |
| 2026-05-08 05:19 | 36.85441 | -113.76402 | 23602 ft | 348 kts | 201° |
| 2026-05-08 05:19 | 36.83247 | -113.77681 | 23311 ft | 349 kts | 201° |
| 2026-05-08 05:19 | 36.81046 | -113.78962 | 22942 ft | 348 kts | 201° |
| 2026-05-08 05:19 | 36.78863 | -113.80234 | 22568 ft | 345 kts | 201° |
| 2026-05-08 05:20 | 36.76698 | -113.81494 | 22196 ft | 343 kts | 201° |
| 2026-05-08 05:20 | 36.74531 | -113.82753 | 21841 ft | 344 kts | 201° |
| 2026-05-08 05:20 | 36.72363 | -113.84012 | 21470 ft | 344 kts | 201° |
| 2026-05-08 05:20 | 36.70226 | -113.85253 | 21096 ft | 343 kts | 201° |
| 2026-05-08 05:21 | 36.68066 | -113.86507 | 20738 ft | 342 kts | 201° |
| 2026-05-08 05:21 | 36.65913 | -113.87756 | 20363 ft | 341 kts | 201° |
| 2026-05-08 05:21 | 36.63766 | -113.89001 | 19995 ft | 339 kts | 201° |
| 2026-05-08 05:21 | 36.63575 | -113.89112 | 19961 ft | 339 kts | 201° |
| 2026-05-08 05:22 | 36.61916 | -113.90072 | 19660 ft | 337 kts | 201° |
| 2026-05-08 05:22 | 36.59810 | -113.91328 | 19330 ft | 336 kts | 206° |
| 2026-05-08 05:22 | 36.57986 | -113.93169 | 19026 ft | 341 kts | 224° |
| 2026-05-08 05:22 | 36.56494 | -113.95453 | 18696 ft | 341 kts | 227° |
| 2026-05-08 05:23 | 36.55059 | -113.97804 | 18337 ft | 341 kts | 229° |
| 2026-05-08 05:23 | 36.53637 | -114.00163 | 17970 ft | 341 kts | 229° |
| 2026-05-08 05:23 | 36.52210 | -114.02517 | 17604 ft | 341 kts | 229° |
| 2026-05-08 05:23 | 36.50795 | -114.04831 | 17234 ft | 340 kts | 229° |
| 2026-05-08 05:24 | 36.49356 | -114.07165 | 16888 ft | 340 kts | 229° |
| 2026-05-08 05:24 | 36.47931 | -114.09467 | 16522 ft | 332 kts | 229° |
| 2026-05-08 05:24 | 36.46547 | -114.11698 | 16179 ft | 320 kts | 229° |
| 2026-05-08 05:24 | 36.45212 | -114.13848 | 15861 ft | 310 kts | 229° |
| 2026-05-08 05:25 | 36.43916 | -114.15930 | 15556 ft | 300 kts | 229° |
| 2026-05-08 05:25 | 36.42660 | -114.17945 | 15255 ft | 291 kts | 229° |
| 2026-05-08 05:25 | 36.41442 | -114.19899 | 14984 ft | 281 kts | 229° |
| 2026-05-08 05:25 | 36.40252 | -114.21804 | 14712 ft | 279 kts | 229° |
| 2026-05-08 05:26 | 36.39051 | -114.23718 | 14459 ft | 282 kts | 229° |
| 2026-05-08 05:26 | 36.37843 | -114.25616 | 14203 ft | 288 kts | 229° |
| 2026-05-08 05:26 | 36.36582 | -114.27590 | 13911 ft | 295 kts | 229° |
| 2026-05-08 05:26 | 36.36493 | -114.27731 | 13888 ft | 295 kts | 229° |
| 2026-05-08 05:27 | 36.35472 | -114.29329 | 13643 ft | 295 kts | 229° |
| 2026-05-08 05:27 | 36.34203 | -114.31318 | 13329 ft | 293 kts | 230° |
| 2026-05-08 05:27 | 36.32941 | -114.33295 | 13022 ft | 292 kts | 230° |
| 2026-05-08 05:27 | 36.31685 | -114.35265 | 12714 ft | 290 kts | 230° |
| 2026-05-08 05:28 | 36.30437 | -114.37220 | 12411 ft | 289 kts | 230° |
| 2026-05-08 05:28 | 36.29194 | -114.39167 | 12114 ft | 287 kts | 230° |
| 2026-05-08 05:28 | 36.27957 | -114.41101 | 11827 ft | 286 kts | 230° |
| 2026-05-08 05:28 | 36.26739 | -114.43006 | 11532 ft | 284 kts | 230° |
| 2026-05-08 05:29 | 36.25515 | -114.44919 | 11243 ft | 283 kts | 230° |
| 2026-05-08 05:29 | 36.24287 | -114.46814 | 10950 ft | 282 kts | 230° |
| 2026-05-08 05:29 | 36.23058 | -114.48699 | 10651 ft | 281 kts | 230° |
| 2026-05-08 05:29 | 36.21832 | -114.50575 | 10361 ft | 279 kts | 230° |
| 2026-05-08 05:30 | 36.20623 | -114.52425 | 10219 ft | 273 kts | 230° |
| 2026-05-08 05:30 | 36.19445 | -114.54230 | 10041 ft | 268 kts | 230° |
| 2026-05-08 05:30 | 36.18276 | -114.56019 | 9762 ft | 267 kts | 230° |
| 2026-05-08 05:30 | 36.17108 | -114.57807 | 9494 ft | 267 kts | 230° |
| 2026-05-08 05:31 | 36.15942 | -114.59591 | 9222 ft | 266 kts | 230° |
| 2026-05-08 05:31 | 36.14798 | -114.61339 | 9035 ft | 263 kts | 230° |
| 2026-05-08 05:31 | 36.13642 | -114.63104 | 8890 ft | 266 kts | 230° |
| 2026-05-08 05:31 | 36.12461 | -114.64907 | 8753 ft | 272 kts | 230° |
| 2026-05-08 05:32 | 36.11282 | -114.66709 | 8588 ft | 266 kts | 230° |
| 2026-05-08 05:32 | 36.10129 | -114.68468 | 8437 ft | 260 kts | 230° |
| 2026-05-08 05:32 | 36.09002 | -114.70184 | 8293 ft | 254 kts | 230° |
| 2026-05-08 05:32 | 36.07913 | -114.71866 | 8152 ft | 248 kts | 234° |
| 2026-05-08 05:33 | 36.07321 | -114.73820 | 7910 ft | 245 kts | 266° |
| 2026-05-08 05:33 | 36.07317 | -114.75914 | 7670 ft | 244 kts | 270° |
| 2026-05-08 05:33 | 36.07330 | -114.78013 | 7381 ft | 244 kts | 270° |
| 2026-05-08 05:33 | 36.07338 | -114.80099 | 7082 ft | 241 kts | 270° |
| 2026-05-08 05:34 | 36.07344 | -114.82155 | 6791 ft | 238 kts | 270° |
| 2026-05-08 05:34 | 36.07351 | -114.84156 | 6505 ft | 235 kts | 270° |
| 2026-05-08 05:34 | 36.07378 | -114.86161 | 6207 ft | 232 kts | 271° |
| 2026-05-08 05:34 | 36.07409 | -114.88148 | 5898 ft | 230 kts | 270° |
| 2026-05-08 05:35 | 36.07414 | -114.90118 | 5604 ft | 228 kts | 269° |
| 2026-05-08 05:35 | 36.07408 | -114.92069 | 5292 ft | 226 kts | 269° |
| 2026-05-08 05:35 | 36.07403 | -114.94008 | 4997 ft | 225 kts | 269° |
| 2026-05-08 05:35 | 36.07398 | -114.95951 | 4687 ft | 226 kts | 269° |
| 2026-05-08 05:36 | 36.07392 | -114.97856 | 4421 ft | 220 kts | 269° |
| 2026-05-08 05:36 | 36.07386 | -114.99742 | 4131 ft | 221 kts | 270° |
| 2026-05-08 05:36 | 36.07383 | -115.01620 | 3828 ft | 223 kts | 270° |
| 2026-05-08 05:36 | 36.07379 | -115.03487 | 3530 ft | 209 kts | 270° |
| 2026-05-08 05:37 | 36.07377 | -115.05197 | 3277 ft | 188 kts | 270° |
| 2026-05-08 05:37 | 36.07374 | -115.06735 | 3021 ft | 171 kts | 270° |
| 2026-05-08 05:37 | 36.07372 | -115.08145 | 2841 ft | 163 kts | 270° |
| 2026-05-08 05:37 | 36.07370 | -115.09531 | 2602 ft | 157 kts | 269° |
| 2026-05-08 05:38 | 36.07368 | -115.10838 | 2392 ft | 149 kts | 270° |
| 2026-05-08 05:38 | 36.07367 | -115.12110 | 2209 ft | 147 kts | 270° |
| 2026-05-08 05:38 | 36.07367 | -115.13302 | 2081 ft | 128 kts | 270° |
| 2026-05-08 05:38 | 36.07369 | -115.14225 | 2085 ft | 78 kts | 270° |
| 2026-05-08 05:39 | 36.07368 | -115.14625 | 2090 ft | 15 kts | 272° |
| 2026-05-08 05:39 | 36.07378 | -115.14778 | 2093 ft | 25 kts | 281° |
| 2026-05-08 05:39 | 36.07444 | -115.14992 | 2097 ft | 26 kts | 297° |
| 2026-05-08 05:39 | 36.07516 | -115.15112 | 2100 ft | 14 kts | 321° |
| 2026-05-08 05:40 | 36.07577 | -115.15159 | 2107 ft | 9 kts | 334° |
| 2026-05-08 05:40 | 36.07661 | -115.15209 | 2110 ft | 16 kts | 334° |
| 2026-05-08 05:40 | 36.07770 | -115.15264 | 2103 ft | 14 kts | 358° |
| 2026-05-08 05:40 | 36.07850 | -115.15202 | 2098 ft | 14 kts | 38° |
| 2026-05-08 05:41 | 36.07876 | -115.15085 | 2097 ft | 15 kts | 94° |
| 2026-05-08 05:41 | 36.07868 | -115.14958 | 2097 ft | 15 kts | 95° |
| 2026-05-08 05:41 | 36.07860 | -115.14836 | 2097 ft | 14 kts | 95° |
| 2026-05-08 05:41 | 36.07851 | -115.14720 | 2096 ft | 13 kts | 94° |
| 2026-05-08 05:42 | 36.07846 | -115.14609 | 2095 ft | 13 kts | 94° |
| 2026-05-08 05:42 | 36.07839 | -115.14500 | 2095 ft | 12 kts | 95° |
| 2026-05-08 05:42 | 36.07832 | -115.14396 | 2095 ft | 12 kts | 94° |
| 2026-05-08 05:42 | 36.07832 | -115.14298 | 2095 ft | 11 kts | 81° |
| 2026-05-08 05:43 | 36.07868 | -115.14232 | 2094 ft | 9 kts | 45° |
| 2026-05-08 05:43 | 36.07903 | -115.14165 | 2094 ft | 10 kts | 71° |
| 2026-05-08 05:43 | 36.07910 | -115.14074 | 2093 ft | 6 kts | 88° |
| 2026-05-08 05:43 | 36.07912 | -115.14024 | 2092 ft | 1 kts | 88° |
| 2026-05-08 05:44 | 36.07912 | -115.14022 | 2092 ft | 1 kts | 82° |
| 2026-05-08 05:44 | 36.07924 | -115.14020 | 2092 ft | 4 kts | 353° |
| 2026-05-08 05:44 | 36.07974 | -115.14007 | 2092 ft | 3 kts | 25° |
| 2026-05-08 05:44 | 36.07979 | -115.14004 | 2092 ft | 0 kts | 25° |